Time;durP1;ratioP1;P1;durP2;ratioP2;P2;SDS_P1;SDS_P2;PMS_P1;PMS_P2;Temp;Humidity;BMP_temperature;BMP_pressure;BME280_temperature;BME280_humidity;BME280_pressure;Samples;Min_cycle;Max_cycle;Signal;HPM_P1;HPM_P2
2023/12/06 00:01:10;;;;;;;79.20;29.05;;;2.80;99.90;;;;;;5073311;28;20020;-72
2023/12/06 00:03:36;;;;;;;67.00;27.30;;;2.70;99.90;;;;;;5076328;28;20108;-71
2023/12/06 00:06:02;;;;;;;65.78;26.90;;;2.70;99.90;;;;;;5081675;28;20619;-71
2023/12/06 00:08:27;;;;;;;58.50;26.33;;;2.80;99.90;;;;;;5076381;28;20497;-72
2023/12/06 00:10:53;;;;;;;50.67;24.02;;;2.70;99.90;;;;;;5072802;28;20036;-71
2023/12/06 00:13:19;;;;;;;78.20;28.90;;;2.70;99.90;;;;;;5080275;28;20107;-71
2023/12/06 00:15:44;;;;;;;55.55;25.52;;;2.70;99.90;;;;;;5079929;28;20031;-72
2023/12/06 00:18:10;;;;;;;62.78;27.48;;;2.70;99.90;;;;;;5068035;28;20115;-72
2023/12/06 00:20:35;;;;;;;57.80;27.15;;;2.70;99.90;;;;;;5067169;28;20218;-72
2023/12/06 00:23:02;;;;;;;63.75;25.77;;;2.70;99.90;;;;;;5081457;28;20020;-72
2023/12/06 00:25:28;;;;;;;56.97;25.88;;;2.80;99.90;;;;;;5076232;28;20047;-72
2023/12/06 00:27:55;;;;;;;62.30;27.92;;;2.70;99.90;;;;;;5072520;28;20578;-71
2023/12/06 00:30:21;;;;;;;58.35;26.88;;;2.80;99.90;;;;;;5080050;28;20023;-72
2023/12/06 00:32:46;;;;;;;55.78;23.90;;;2.80;99.90;;;;;;5080628;28;20028;-72
2023/12/06 00:35:12;;;;;;;54.45;25.08;;;2.80;99.90;;;;;;5068548;28;20048;-71
2023/12/06 00:37:37;;;;;;;65.63;28.83;;;2.80;99.90;;;;;;5067207;28;20027;-72
2023/12/06 00:40:04;;;;;;;60.45;27.15;;;2.80;99.90;;;;;;5081246;28;20532;-72
2023/12/06 00:42:29;;;;;;;46.17;22.30;;;2.70;99.90;;;;;;5075829;28;20027;-72
2023/12/06 00:44:55;;;;;;;49.70;24.58;;;2.80;99.90;;;;;;5072429;28;20208;-71
2023/12/06 00:47:21;;;;;;;57.03;25.90;;;2.80;99.90;;;;;;5071949;28;20485;-72
2023/12/06 00:49:46;;;;;;;55.50;25.10;;;2.80;99.90;;;;;;5077367;28;20106;-72
2023/12/06 00:52:12;;;;;;;54.30;25.65;;;2.80;99.90;;;;;;5066520;28;20027;-72
2023/12/06 00:54:38;;;;;;;55.50;26.27;;;2.80;99.90;;;;;;5065883;28;20182;-72
2023/12/06 00:57:04;;;;;;;53.53;24.08;;;2.80;99.90;;;;;;5079824;28;20533;-72
2023/12/06 00:59:29;;;;;;;59.90;27.13;;;2.80;99.90;;;;;;5072601;28;20698;-72
2023/12/06 01:01:55;;;;;;;67.25;26.98;;;2.80;99.90;;;;;;5075324;28;20024;-71
2023/12/06 01:04:21;;;;;;;48.90;23.10;;;2.80;99.90;;;;;;5080554;28;20485;-72
2023/12/06 01:06:47;;;;;;;72.50;28.30;;;2.80;99.90;;;;;;5075275;28;20024;-72
2023/12/06 01:09:12;;;;;;;61.95;25.75;;;2.90;99.90;;;;;;5054277;28;20499;-71
2023/12/06 01:11:38;;;;;;;59.00;26.40;;;2.90;99.90;;;;;;5078978;28;20569;-72
2023/12/06 01:14:04;;;;;;;48.25;23.70;;;2.90;99.90;;;;;;5079932;28;20020;-72
2023/12/06 01:16:29;;;;;;;63.40;26.77;;;2.90;99.90;;;;;;5066775;28;20020;-72
2023/12/06 01:18:55;;;;;;;57.88;25.02;;;2.90;99.90;;;;;;5066262;28;20021;-72
2023/12/06 01:21:21;;;;;;;49.75;24.63;;;2.90;99.90;;;;;;5080308;28;20155;-71
2023/12/06 01:23:46;;;;;;;56.67;25.33;;;2.90;99.90;;;;;;5075374;28;20496;-71
2023/12/06 01:26:12;;;;;;;44.53;22.30;;;2.90;99.90;;;;;;5074003;28;20025;-71
2023/12/06 01:28:38;;;;;;;75.85;28.25;;;2.90;99.90;;;;;;5065187;28;20031;-71
2023/12/06 01:31:03;;;;;;;59.17;24.95;;;2.90;99.90;;;;;;5083350;28;20414;-71
2023/12/06 01:33:29;;;;;;;71.72;28.65;;;2.90;99.90;;;;;;5075986;28;20028;-72
2023/12/06 01:35:55;;;;;;;60.15;26.50;;;2.90;99.90;;;;;;5079221;28;20029;-72
2023/12/06 01:38:20;;;;;;;67.13;26.60;;;3.00;99.90;;;;;;5055018;28;20523;-72
2023/12/06 01:40:46;;;;;;;70.68;28.75;;;2.90;99.90;;;;;;5081131;28;20102;-71
2023/12/06 01:43:12;;;;;;;67.65;27.60;;;3.00;99.90;;;;;;5084121;28;20489;-72
2023/12/06 01:45:37;;;;;;;53.25;25.02;;;3.00;99.90;;;;;;5073784;28;20028;-71
2023/12/06 01:48:03;;;;;;;64.00;25.73;;;3.00;99.90;;;;;;5078842;28;20024;-71
2023/12/06 01:50:32;;;;;;;62.47;25.85;;;3.00;99.90;;;;;;5074928;28;20026;-71
2023/12/06 01:52:59;;;;;;;91.50;29.58;;;3.00;99.90;;;;;;5077217;28;20024;-72
2023/12/06 01:55:25;;;;;;;69.93;25.83;;;3.00;99.90;;;;;;5076491;28;20123;-71
2023/12/06 01:57:51;;;;;;;65.25;26.48;;;3.00;99.90;;;;;;5074924;28;20517;-71
2023/12/06 02:00:17;;;;;;;76.25;27.73;;;3.10;99.90;;;;;;5078337;28;20032;-72
2023/12/06 02:02:44;;;;;;;75.97;29.38;;;3.10;99.90;;;;;;5083530;28;20051;-72
2023/12/06 02:05:12;;;;;;;70.40;27.90;;;3.10;99.90;;;;;;5079812;28;20381;-72
2023/12/06 02:07:38;;;;;;;71.80;28.30;;;3.10;99.90;;;;;;5075126;28;20020;-71
2023/12/06 02:10:04;;;;;;;69.85;26.38;;;3.10;99.90;;;;;;5063319;28;20028;-70
2023/12/06 02:12:30;;;;;;;61.88;26.27;;;3.10;99.90;;;;;;5083280;28;20108;-71
2023/12/06 02:14:58;;;;;;;86.38;28.17;;;3.10;99.90;;;;;;5075833;28;20028;-72
2023/12/06 02:17:25;;;;;;;74.07;26.77;;;3.10;99.90;;;;;;5076339;28;20064;-71
2023/12/06 02:19:52;;;;;;;96.35;28.98;;;3.10;99.90;;;;;;5083587;28;20027;-71
2023/12/06 02:22:18;;;;;;;65.57;26.15;;;3.10;99.90;;;;;;5080068;28;20028;-71
2023/12/06 02:24:46;;;;;;;68.10;27.45;;;3.10;99.90;;;;;;5075317;28;20028;-71
2023/12/06 02:27:12;;;;;;;72.65;27.92;;;3.20;99.90;;;;;;5080215;28;20021;-71
2023/12/06 02:29:39;;;;;;;76.55;28.15;;;3.20;99.90;;;;;;5083117;28;20277;-71
2023/12/06 02:32:05;;;;;;;60.78;25.85;;;3.20;99.90;;;;;;5076447;28;20020;-71
2023/12/06 02:34:32;;;;;;;82.35;29.15;;;3.20;99.90;;;;;;5076228;28;20023;-72
2023/12/06 02:37:00;;;;;;;66.90;26.77;;;3.20;99.90;;;;;;5073224;28;20253;-71
2023/12/06 02:39:34;;;;;;;94.97;27.25;;;3.20;99.90;;;;;;5083132;28;20028;-71
2023/12/06 02:41:59;;;;;;;105.32;31.23;;;3.20;99.90;;;;;;5074755;28;20020;-71
2023/12/06 02:44:25;;;;;;;89.93;29.65;;;3.20;99.90;;;;;;5078177;28;20633;-71
2023/12/06 02:46:51;;;;;;;105.07;29.75;;;3.20;99.90;;;;;;5072308;28;20025;-71
2023/12/06 02:49:17;;;;;;;105.70;29.88;;;3.20;99.90;;;;;;5056027;28;20020;-72
2023/12/06 02:51:43;;;;;;;89.40;28.90;;;3.30;99.90;;;;;;5085961;28;20032;-71
2023/12/06 02:54:08;;;;;;;93.25;29.58;;;3.30;99.90;;;;;;5074671;28;20016;-71
2023/12/06 02:56:35;;;;;;;91.00;30.67;;;3.30;99.90;;;;;;5079198;28;20514;-72
2023/12/06 02:59:00;;;;;;;92.63;28.90;;;3.30;99.90;;;;;;5082870;28;20115;-71
2023/12/06 03:01:26;;;;;;;82.38;29.30;;;3.30;99.90;;;;;;5075449;28;20127;-71
2023/12/06 03:03:52;;;;;;;94.97;28.13;;;3.40;99.90;;;;;;5074957;28;20020;-72
2023/12/06 03:06:17;;;;;;;91.18;30.55;;;3.30;99.90;;;;;;5082393;28;20020;-72
2023/12/06 03:08:43;;;;;;;109.40;30.27;;;3.40;99.90;;;;;;5079427;28;20527;-72
2023/12/06 03:11:09;;;;;;;72.30;24.55;;;3.40;99.90;;;;;;5074340;28;20098;-72
2023/12/06 03:13:34;;;;;;;97.40;29.17;;;3.40;99.90;;;;;;5079562;28;20481;-72
2023/12/06 03:16:00;;;;;;;71.65;27.27;;;3.40;99.90;;;;;;5068485;28;20039;-72
2023/12/06 03:18:26;;;;;;;88.20;28.15;;;3.40;99.90;;;;;;5068143;28;20025;-71
2023/12/06 03:20:52;;;;;;;73.93;26.73;;;3.40;99.90;;;;;;5067994;28;20021;-71
2023/12/06 03:23:17;;;;;;;79.53;27.92;;;3.40;99.90;;;;;;5082283;28;20012;-72
2023/12/06 03:25:43;;;;;;;88.80;28.02;;;3.40;99.90;;;;;;5079349;28;20055;-71
2023/12/06 03:28:09;;;;;;;74.50;26.10;;;3.50;99.90;;;;;;5073950;28;20016;-72
2023/12/06 03:30:34;;;;;;;91.55;28.80;;;3.50;99.90;;;;;;5079249;28;20070;-71
2023/12/06 03:33:00;;;;;;;77.15;27.60;;;3.40;99.90;;;;;;5082063;28;20108;-72
2023/12/06 03:35:26;;;;;;;73.43;25.95;;;3.40;99.90;;;;;;5075275;28;20028;-71
2023/12/06 03:37:52;;;;;;;74.60;27.27;;;3.50;99.90;;;;;;5074319;28;20100;-72
2023/12/06 03:40:17;;;;;;;77.90;28.25;;;3.40;99.90;;;;;;5081733;28;20041;-71
2023/12/06 03:42:43;;;;;;;105.30;28.45;;;3.50;99.90;;;;;;5078410;28;20016;-71
2023/12/06 03:45:12;;;;;;;101.90;30.70;;;3.50;99.90;;;;;;5073751;28;20020;-73
2023/12/06 03:47:38;;;;;;;96.68;30.83;;;3.50;99.90;;;;;;5073280;28;20027;-71
2023/12/06 03:50:04;;;;;;;84.20;29.23;;;3.50;99.90;;;;;;5075648;28;20037;-71
2023/12/06 03:52:30;;;;;;;77.68;27.85;;;3.50;99.90;;;;;;5081745;28;20325;-72
2023/12/06 03:54:56;;;;;;;60.80;24.70;;;3.50;99.90;;;;;;5077662;28;20641;-71
2023/12/06 03:57:22;;;;;;;94.90;29.08;;;3.60;99.90;;;;;;5073363;28;20382;-71
2023/12/06 03:59:47;;;;;;;83.70;28.35;;;3.50;99.90;;;;;;5080061;28;20439;-71
2023/12/06 04:02:14;;;;;;;69.95;27.55;;;3.50;99.90;;;;;;5080982;28;20099;-71
2023/12/06 04:04:39;;;;;;;84.45;29.17;;;3.60;99.90;;;;;;5072575;28;20031;-71
2023/12/06 04:07:05;;;;;;;66.13;26.30;;;3.50;99.90;;;;;;5075468;28;20024;-72
2023/12/06 04:09:31;;;;;;;65.28;25.20;;;3.50;99.90;;;;;;5081749;28;20496;-71
2023/12/06 04:11:57;;;;;;;85.57;28.48;;;3.50;99.90;;;;;;5067307;28;20036;-71
2023/12/06 04:14:22;;;;;;;71.70;27.70;;;3.60;99.90;;;;;;5069153;28;20024;-71
2023/12/06 04:16:49;;;;;;;54.97;24.13;;;3.50;99.90;;;;;;5079505;28;20033;-71
2023/12/06 04:19:15;;;;;;;69.65;28.73;;;3.50;99.90;;;;;;5081061;28;20043;-71
2023/12/06 04:21:41;;;;;;;58.47;25.88;;;3.50;99.90;;;;;;5066833;28;20024;-71
2023/12/06 04:24:07;;;;;;;66.88;27.35;;;3.50;99.90;;;;;;5078988;28;20027;-71
2023/12/06 04:26:32;;;;;;;69.13;28.42;;;3.60;99.90;;;;;;5072682;28;20061;-71
2023/12/06 04:28:58;;;;;;;57.38;24.77;;;3.60;99.90;;;;;;5077585;28;20036;-72
2023/12/06 04:31:24;;;;;;;60.70;24.63;;;3.60;99.90;;;;;;5081448;28;20665;-72
2023/12/06 04:33:50;;;;;;;55.83;24.42;;;3.60;99.90;;;;;;5074959;28;20484;-70
2023/12/06 04:36:16;;;;;;;73.60;26.92;;;3.60;99.90;;;;;;5073120;28;20480;-71
2023/12/06 04:38:41;;;;;;;62.65;27.17;;;3.60;99.90;;;;;;5080577;28;20024;-70
2023/12/06 04:41:07;;;;;;;66.78;26.40;;;3.60;99.90;;;;;;5075194;28;20028;-70
2023/12/06 04:43:34;;;;;;;74.65;27.30;;;3.60;99.90;;;;;;5080497;28;20486;-70
2023/12/06 04:46:00;;;;;;;65.65;26.17;;;3.60;99.90;;;;;;5070774;28;20012;-70
2023/12/06 04:48:25;;;;;;;77.10;27.05;;;3.70;99.90;;;;;;5078911;28;20039;-70
2023/12/06 04:50:51;;;;;;;58.53;25.13;;;3.70;99.90;;;;;;5072490;28;20492;-71
2023/12/06 04:53:17;;;;;;;57.10;24.42;;;3.70;99.90;;;;;;5076802;28;20043;-71
2023/12/06 04:55:43;;;;;;;71.90;25.70;;;3.70;99.90;;;;;;5081028;28;20050;-70
2023/12/06 04:58:09;;;;;;;75.38;26.73;;;3.70;99.90;;;;;;5074486;28;20022;-71
2023/12/06 05:00:36;;;;;;;72.43;26.30;;;3.70;99.90;;;;;;5071590;28;20023;-71
2023/12/06 05:03:02;;;;;;;60.88;27.27;;;3.70;99.90;;;;;;5080170;28;20008;-71
2023/12/06 05:05:28;;;;;;;69.10;27.23;;;3.80;99.90;;;;;;5078863;28;20027;-71
2023/12/06 05:07:55;;;;;;;56.25;25.50;;;3.70;99.90;;;;;;5068057;28;20294;-70
2023/12/06 05:10:21;;;;;;;54.70;24.00;;;3.70;99.90;;;;;;5066594;28;20485;-70
2023/12/06 05:12:47;;;;;;;68.05;26.02;;;3.80;99.90;;;;;;5080404;28;20024;-70
2023/12/06 05:15:13;;;;;;;76.40;25.35;;;3.80;99.90;;;;;;5066775;28;20453;-70
2023/12/06 05:17:39;;;;;;;54.53;23.15;;;3.80;99.90;;;;;;5080102;28;20111;-70
2023/12/06 05:20:06;;;;;;;54.45;23.65;;;3.80;99.90;;;;;;5072831;28;20020;-71
2023/12/06 05:22:32;;;;;;;76.72;26.38;;;3.80;99.90;;;;;;5079131;28;20853;-70
2023/12/06 05:24:57;;;;;;;54.08;24.05;;;3.80;99.90;;;;;;5072543;28;20018;-70
2023/12/06 05:27:23;;;;;;;49.80;22.88;;;3.80;99.90;;;;;;5075295;28;20104;-71
2023/12/06 05:29:49;;;;;;;61.45;23.95;;;3.80;99.90;;;;;;5080502;28;20107;-70
2023/12/06 05:32:14;;;;;;;59.80;22.85;;;3.80;99.90;;;;;;5075065;28;20017;-71
2023/12/06 05:34:40;;;;;;;58.25;22.83;;;3.80;99.90;;;;;;5072105;28;20020;-71
2023/12/06 05:37:05;;;;;;;56.67;22.45;;;3.90;99.90;;;;;;5079595;28;20013;-71
2023/12/06 05:39:31;;;;;;;48.60;21.48;;;3.90;99.90;;;;;;5078609;28;20115;-71
2023/12/06 05:41:57;;;;;;;45.35;21.65;;;3.90;99.90;;;;;;5071932;28;20023;-71
2023/12/06 05:44:24;;;;;;;52.67;21.77;;;3.90;99.90;;;;;;5075722;28;20025;-71
2023/12/06 05:46:50;;;;;;;66.90;23.27;;;3.90;99.90;;;;;;5070054;28;20044;-71
2023/12/06 05:49:16;;;;;;;65.65;23.90;;;3.90;99.90;;;;;;5080032;28;20113;-70
2023/12/06 05:51:42;;;;;;;27.05;16.20;;;3.90;99.90;;;;;;5065880;28;20520;-70
2023/12/06 05:54:08;;;;;;;61.17;23.70;;;3.90;99.90;;;;;;5069163;28;20043;-71
2023/12/06 05:56:34;;;;;;;64.30;23.58;;;4.00;99.90;;;;;;5077088;28;20029;-70
2023/12/06 05:59:00;;;;;;;51.10;23.02;;;4.00;99.90;;;;;;5080178;28;20051;-71
2023/12/06 06:01:26;;;;;;;57.15;22.45;;;4.00;99.90;;;;;;5073142;28;20035;-70
2023/12/06 06:03:52;;;;;;;56.33;22.52;;;4.00;99.90;;;;;;5072657;28;20024;-71
2023/12/06 06:06:17;;;;;;;49.85;22.38;;;4.00;99.90;;;;;;5080209;28;20103;-71
2023/12/06 06:08:43;;;;;;;54.97;22.02;;;4.00;99.90;;;;;;5065730;28;20037;-71
2023/12/06 06:11:09;;;;;;;53.00;22.27;;;4.00;99.90;;;;;;5051606;28;20099;-71
2023/12/06 06:13:34;;;;;;;59.72;24.10;;;4.00;99.90;;;;;;5080194;28;20397;-71
2023/12/06 06:16:00;;;;;;;68.00;23.60;;;4.10;99.90;;;;;;5084167;28;20501;-70
2023/12/06 06:18:27;;;;;;;52.28;21.52;;;4.10;99.90;;;;;;5076260;28;20103;-71
2023/12/06 06:20:53;;;;;;;71.85;23.25;;;4.10;99.90;;;;;;5076632;28;20040;-70
2023/12/06 06:23:19;;;;;;;55.90;22.45;;;4.10;99.90;;;;;;5069376;28;20099;-71
2023/12/06 06:25:44;;;;;;;67.88;24.30;;;4.10;99.90;;;;;;5080879;28;20540;-71
2023/12/06 06:28:11;;;;;;;62.40;24.17;;;4.10;99.90;;;;;;5075069;28;20028;-70
2023/12/06 06:30:36;;;;;;;48.15;22.23;;;4.10;99.90;;;;;;5079957;28;20589;-71
2023/12/06 06:33:02;;;;;;;61.13;24.00;;;4.10;99.90;;;;;;5083061;28;20074;-70
2023/12/06 06:35:27;;;;;;;56.72;23.95;;;4.10;99.90;;;;;;5069219;28;20020;-71
2023/12/06 06:37:53;;;;;;;70.25;24.75;;;4.10;99.90;;;;;;5068695;28;20375;-70
2023/12/06 06:40:22;;;;;;;59.80;22.88;;;4.10;99.90;;;;;;5083376;28;20513;-71
2023/12/06 06:42:48;;;;;;;88.38;26.30;;;4.10;99.90;;;;;;5050519;28;20074;-71
2023/12/06 06:45:13;;;;;;;55.40;23.40;;;4.20;99.90;;;;;;5083195;28;20020;-70
2023/12/06 06:47:39;;;;;;;53.67;22.40;;;4.20;99.90;;;;;;5082706;28;20098;-70
2023/12/06 06:50:05;;;;;;;68.78;26.50;;;4.20;99.90;;;;;;5080583;28;20058;-70
2023/12/06 06:52:35;;;;;;;60.08;24.00;;;4.20;99.90;;;;;;5074624;28;20016;-71
2023/12/06 06:55:00;;;;;;;66.88;24.67;;;4.20;99.90;;;;;;5078995;28;20477;-70
2023/12/06 06:57:26;;;;;;;74.93;25.75;;;4.20;99.90;;;;;;5082730;28;20032;-70
2023/12/06 06:59:52;;;;;;;57.92;22.55;;;4.20;99.90;;;;;;5068909;28;20025;-70
2023/12/06 07:02:18;;;;;;;59.17;23.45;;;4.20;99.90;;;;;;5068743;28;20095;-71
2023/12/06 07:04:44;;;;;;;89.05;25.48;;;4.20;99.90;;;;;;5068423;28;20024;-71
2023/12/06 07:07:10;;;;;;;51.10;21.50;;;4.20;99.90;;;;;;5067863;28;20025;-71
2023/12/06 07:09:36;;;;;;;60.80;24.23;;;4.20;99.90;;;;;;5068126;28;20071;-70
2023/12/06 07:12:03;;;;;;;54.20;22.63;;;4.20;99.90;;;;;;5068106;28;20033;-71
2023/12/06 07:14:29;;;;;;;71.43;25.20;;;4.30;99.90;;;;;;5067876;28;20543;-71
2023/12/06 07:16:55;;;;;;;51.53;21.02;;;4.20;99.90;;;;;;5076748;28;20036;-70
2023/12/06 07:19:21;;;;;;;48.15;22.08;;;4.30;99.90;;;;;;5069559;28;20037;-70
2023/12/06 07:21:47;;;;;;;51.22;22.58;;;4.30;99.90;;;;;;5067052;28;20438;-71
2023/12/06 07:24:13;;;;;;;43.55;19.52;;;4.30;99.90;;;;;;5049011;28;20028;-71
2023/12/06 07:26:39;;;;;;;48.63;22.35;;;4.30;99.90;;;;;;5067431;28;20024;-71
2023/12/06 07:29:05;;;;;;;59.72;22.23;;;4.30;99.90;;;;;;5060272;28;20043;-71
2023/12/06 07:31:31;;;;;;;58.38;22.92;;;4.30;99.90;;;;;;5066482;28;20032;-71
2023/12/06 07:33:57;;;;;;;50.75;21.77;;;4.30;99.90;;;;;;5065796;28;20481;-71
2023/12/06 07:36:23;;;;;;;56.92;20.73;;;4.30;99.90;;;;;;5068150;28;20032;-71
2023/12/06 07:38:49;;;;;;;60.90;23.13;;;4.30;99.90;;;;;;5071533;28;20918;-73
2023/12/06 07:41:15;;;;;;;53.00;21.02;;;4.40;99.90;;;;;;5062803;28;20040;-71
2023/12/06 07:43:40;;;;;;;59.17;23.75;;;4.40;99.90;;;;;;5032841;28;20083;-72
2023/12/06 07:46:06;;;;;;;59.00;22.75;;;4.40;99.90;;;;;;5051626;28;20033;-72
2023/12/06 07:48:33;;;;;;;60.20;23.05;;;4.40;99.90;;;;;;5064046;28;20036;-72
2023/12/06 07:50:59;;;;;;;46.05;21.52;;;4.40;99.90;;;;;;5065441;28;20027;-72
2023/12/06 07:53:25;;;;;;;49.22;21.95;;;4.40;99.90;;;;;;5059117;28;20052;-72
2023/12/06 07:55:54;;;;;;;46.55;20.63;;;4.50;99.90;;;;;;5050284;28;20143;-72
2023/12/06 07:58:21;;;;;;;50.08;21.05;;;4.40;99.90;;;;;;5043868;28;20024;-73
2023/12/06 08:00:47;;;;;;;56.90;21.90;;;4.50;99.90;;;;;;5044362;28;20031;-72
2023/12/06 08:03:12;;;;;;;56.80;21.25;;;4.50;99.90;;;;;;5046778;28;20200;-72
2023/12/06 08:05:38;;;;;;;37.60;17.65;;;4.40;99.90;;;;;;5046787;28;20108;-72
2023/12/06 08:08:05;;;;;;;45.10;19.80;;;4.50;99.90;;;;;;5059009;28;20029;-72
2023/12/06 08:10:33;;;;;;;58.72;20.90;;;4.50;99.90;;;;;;5058928;28;20874;-72
2023/12/06 08:12:59;;;;;;;43.63;18.98;;;4.50;99.90;;;;;;5051559;28;20023;-72
2023/12/06 08:15:25;;;;;;;42.90;17.30;;;4.50;99.90;;;;;;5066794;28;20056;-72
2023/12/06 08:17:51;;;;;;;49.05;19.45;;;4.50;99.90;;;;;;5048108;28;20303;-72
2023/12/06 08:20:17;;;;;;;39.10;19.10;;;4.60;99.90;;;;;;5044961;28;20025;-72
2023/12/06 08:22:42;;;;;;;49.17;19.10;;;4.50;99.90;;;;;;5044964;28;20403;-72
2023/12/06 08:25:08;;;;;;;57.03;21.27;;;4.60;99.90;;;;;;5050128;28;20024;-72
2023/12/06 08:27:34;;;;;;;41.25;19.27;;;4.60;99.90;;;;;;5044921;28;20072;-72
2023/12/06 08:30:00;;;;;;;42.28;18.40;;;4.60;99.90;;;;;;5045463;28;20180;-72
2023/12/06 08:32:27;;;;;;;43.53;18.77;;;4.60;99.90;;;;;;5045814;28;20060;-72
2023/12/06 08:34:54;;;;;;;39.58;15.90;;;4.60;99.90;;;;;;5046455;28;20025;-72
2023/12/06 08:37:19;;;;;;;29.60;15.20;;;4.60;99.90;;;;;;5046639;28;20364;-72
2023/12/06 08:39:45;;;;;;;44.80;19.48;;;4.60;99.90;;;;;;5046584;28;20028;-72
2023/12/06 08:42:14;;;;;;;40.95;18.40;;;4.60;99.90;;;;;;5046517;28;20025;-72
2023/12/06 08:44:41;;;;;;;40.83;19.42;;;4.60;99.90;;;;;;5046573;28;20017;-72
2023/12/06 08:47:08;;;;;;;42.05;19.52;;;4.60;99.90;;;;;;5046298;28;20110;-73
2023/12/06 08:49:36;;;;;;;51.33;20.98;;;4.70;99.90;;;;;;5046223;28;20075;-73
2023/12/06 08:52:02;;;;;;;61.25;21.15;;;4.70;99.90;;;;;;5046872;28;20033;-72
2023/12/06 08:54:27;;;;;;;53.47;20.90;;;4.70;99.90;;;;;;5046462;28;20140;-72
2023/12/06 08:56:53;;;;;;;44.22;19.20;;;4.70;99.90;;;;;;5046599;28;20031;-72
2023/12/06 08:59:19;;;;;;;40.22;18.33;;;4.70;99.90;;;;;;5046354;28;20111;-73
2023/12/06 09:01:44;;;;;;;49.40;20.77;;;4.70;99.90;;;;;;5046559;28;20021;-72
2023/12/06 09:04:10;;;;;;;47.70;19.73;;;4.70;99.90;;;;;;5045821;28;20025;-72
2023/12/06 09:06:37;;;;;;;53.17;19.83;;;4.80;99.90;;;;;;5046690;28;20612;-73
2023/12/06 09:09:04;;;;;;;40.42;18.50;;;4.80;99.90;;;;;;5046412;28;20033;-72
2023/12/06 09:11:30;;;;;;;40.38;18.63;;;4.80;99.90;;;;;;5032505;28;20029;-73
2023/12/06 09:13:56;;;;;;;42.72;18.92;;;4.80;99.90;;;;;;5045822;28;20437;-72
2023/12/06 09:16:22;;;;;;;35.58;17.10;;;4.80;99.90;;;;;;5028430;28;20036;-72
2023/12/06 09:18:47;;;;;;;37.42;17.38;;;4.80;99.90;;;;;;5042662;28;20509;-72
2023/12/06 09:21:16;;;;;;;36.97;17.73;;;4.80;99.90;;;;;;5046360;28;20025;-72
2023/12/06 09:23:43;;;;;;;42.50;17.55;;;4.90;99.90;;;;;;5045648;28;20029;-72
2023/12/06 09:26:09;;;;;;;36.05;16.05;;;4.90;99.90;;;;;;5046425;28;20021;-72
2023/12/06 09:28:38;;;;;;;31.08;16.60;;;4.90;99.90;;;;;;5045751;28;20032;-72
2023/12/06 09:31:05;;;;;;;30.15;16.55;;;4.80;99.90;;;;;;5045566;28;20028;-72
2023/12/06 09:33:31;;;;;;;37.88;17.27;;;4.90;99.90;;;;;;5045985;28;20049;-72
2023/12/06 09:35:57;;;;;;;39.20;17.48;;;4.90;99.90;;;;;;5046473;28;20067;-72
2023/12/06 09:38:22;;;;;;;34.70;18.48;;;4.90;99.90;;;;;;5045287;28;20057;-73
2023/12/06 09:40:48;;;;;;;37.50;17.98;;;4.90;99.90;;;;;;5045869;28;20500;-71
2023/12/06 09:43:13;;;;;;;33.80;17.85;;;4.90;99.90;;;;;;5045867;28;20025;-71
2023/12/06 09:45:40;;;;;;;33.60;16.92;;;4.90;99.90;;;;;;5045845;28;20513;-71
2023/12/06 09:48:06;;;;;;;35.17;19.10;;;5.00;99.90;;;;;;5049131;28;20017;-71
2023/12/06 09:50:31;;;;;;;38.08;19.27;;;5.00;99.90;;;;;;5050001;28;20092;-71
2023/12/06 09:52:57;;;;;;;36.80;18.88;;;5.00;99.90;;;;;;5049594;28;20062;-71
2023/12/06 09:55:24;;;;;;;38.55;19.55;;;5.00;99.90;;;;;;5050192;28;20115;-71
2023/12/06 09:57:56;;;;;;;35.17;18.55;;;5.00;99.90;;;;;;5049662;28;20079;-71
2023/12/06 10:00:23;;;;;;;38.75;18.27;;;5.10;99.90;;;;;;5049513;28;20029;-71
2023/12/06 10:02:59;;;;;;;38.80;19.50;;;5.10;99.90;;;;;;5031027;28;20031;-71
2023/12/06 10:05:25;;;;;;;33.80;17.83;;;5.10;99.90;;;;;;5048367;28;20052;-71
2023/12/06 10:07:51;;;;;;;42.92;19.58;;;5.10;99.90;;;;;;5049271;28;20025;-71
2023/12/06 10:10:22;;;;;;;36.45;19.10;;;5.20;99.90;;;;;;5049541;28;20477;-71
2023/12/06 10:12:50;;;;;;;30.63;17.90;;;5.20;99.90;;;;;;5048765;28;20380;-72
2023/12/06 10:15:17;;;;;;;43.20;20.52;;;5.30;99.90;;;;;;5050252;28;20025;-70
2023/12/06 10:17:42;;;;;;;38.03;19.23;;;5.40;99.90;;;;;;5049778;28;20056;-70
2023/12/06 10:20:08;;;;;;;41.22;19.48;;;5.50;99.90;;;;;;5049466;28;20680;-70
2023/12/06 10:22:35;;;;;;;30.58;17.13;;;5.50;99.90;;;;;;5049913;28;20025;-70
2023/12/06 10:25:01;;;;;;;34.20;16.25;;;5.60;99.90;;;;;;5048827;28;20017;-70
2023/12/06 10:27:27;;;;;;;38.35;18.50;;;5.70;99.90;;;;;;5049505;28;20620;-70
2023/12/06 10:29:53;;;;;;;34.25;17.45;;;5.70;99.90;;;;;;5049507;28;20095;-70
2023/12/06 10:32:19;;;;;;;25.58;15.32;;;5.80;99.90;;;;;;5049304;28;20712;-70
2023/12/06 10:34:47;;;;;;;28.88;16.27;;;5.80;99.90;;;;;;5049206;28;20105;-70
2023/12/06 10:37:19;;;;;;;28.48;16.75;;;5.90;99.90;;;;;;5031996;28;20509;-70
2023/12/06 10:39:49;;;;;;;28.80;15.15;;;5.90;99.90;;;;;;5042974;28;20033;-70
2023/12/06 10:42:24;;;;;;;27.77;15.23;;;6.00;99.90;;;;;;5049471;28;20615;-70
2023/12/06 10:44:52;;;;;;;31.02;16.98;;;6.00;99.90;;;;;;5048267;28;20091;-70
2023/12/06 10:47:18;;;;;;;30.60;16.25;;;6.00;99.90;;;;;;5048813;28;20719;-70
2023/12/06 10:49:46;;;;;;;29.05;14.38;;;6.10;99.90;;;;;;5048319;28;20112;-70
2023/12/06 10:52:13;;;;;;;27.15;14.35;;;6.10;99.90;;;;;;5049296;28;20104;-70
2023/12/06 10:54:41;;;;;;;25.88;15.70;;;6.20;99.90;;;;;;5048330;28;20140;-70
2023/12/06 10:57:07;;;;;;;22.13;12.93;;;6.30;99.90;;;;;;5048594;28;20029;-70
2023/12/06 10:59:35;;;;;;;20.90;14.63;;;6.30;99.90;;;;;;5028749;28;20083;-70
2023/12/06 11:02:02;;;;;;;27.70;15.43;;;6.40;99.90;;;;;;5048616;28;20033;-70
2023/12/06 11:04:32;;;;;;;28.90;15.25;;;6.50;99.90;;;;;;5047664;28;20513;-70
2023/12/06 11:07:26;;;;;;;24.98;14.35;;;6.60;99.90;;;;;;5048722;28;20039;-71
2023/12/06 11:09:58;;;;;;;20.08;12.50;;;6.80;99.90;;;;;;5041558;28;20025;-71
2023/12/06 11:12:38;;;;;;;24.55;14.98;;;7.00;99.90;;;;;;5042067;28;20036;-70
2023/12/06 11:15:18;;;;;;;19.52;12.60;;;7.30;99.90;;;;;;5044666;28;20076;-70
2023/12/06 11:17:46;;;;;;;23.80;13.52;;;7.60;99.90;;;;;;5048297;28;20031;-70
2023/12/06 11:20:13;;;;;;;20.77;13.45;;;7.70;99.90;;;;;;5048425;28;20013;-70
2023/12/06 11:22:40;;;;;;;20.10;12.77;;;7.80;99.90;;;;;;5048103;28;20028;-70
2023/12/06 11:25:07;;;;;;;14.85;11.20;;;7.90;99.90;;;;;;5048285;28;20068;-70
2023/12/06 11:27:32;;;;;;;20.42;11.77;;;7.90;99.90;;;;;;5048478;28;20059;-71
2023/12/06 11:29:58;;;;;;;18.88;13.48;;;8.10;99.90;;;;;;5047898;28;20557;-69
2023/12/06 11:32:39;;;;;;;17.13;11.88;;;8.20;99.90;;;;;;5048357;28;20083;-70
2023/12/06 11:35:07;;;;;;;16.80;11.55;;;8.20;99.90;;;;;;5031320;28;20389;-70
2023/12/06 11:37:33;;;;;;;16.75;11.07;;;8.10;99.90;;;;;;5040755;28;20445;-71
2023/12/06 11:40:20;;;;;;;21.30;12.95;;;8.00;99.90;;;;;;5046382;28;20036;-71
2023/12/06 11:42:56;;;;;;;21.25;11.93;;;7.80;99.90;;;;;;5060851;28;20517;-70
2023/12/06 11:45:29;;;;;;;15.00;10.35;;;7.70;99.90;;;;;;5066430;28;20095;-71
2023/12/06 11:48:02;;;;;;;18.83;12.10;;;7.60;99.90;;;;;;5067236;28;20059;-70
2023/12/06 11:50:28;;;;;;;20.95;13.82;;;7.50;99.90;;;;;;5067187;28;20111;-70
2023/12/06 11:52:54;;;;;;;19.83;12.60;;;7.40;99.90;;;;;;5067251;28;20111;-71
2023/12/06 11:55:21;;;;;;;20.00;12.27;;;7.20;99.90;;;;;;5067197;28;20103;-70
2023/12/06 11:58:06;;;;;;;19.30;12.57;;;7.20;99.90;;;;;;5049044;28;20032;-70
2023/12/06 12:00:32;;;;;;;18.90;12.43;;;7.10;99.90;;;;;;5066988;28;20052;-71
2023/12/06 12:03:00;;;;;;;16.92;11.80;;;7.10;99.90;;;;;;5066582;28;20055;-71
2023/12/06 12:05:25;;;;;;;21.00;11.98;;;7.10;99.90;;;;;;5066925;28;20027;-71
2023/12/06 12:07:52;;;;;;;21.90;11.82;;;7.30;99.90;;;;;;5066454;28;20020;-71
2023/12/06 12:10:19;;;;;;;18.92;11.60;;;7.40;99.90;;;;;;5066561;28;20464;-71
2023/12/06 12:12:48;;;;;;;18.83;11.68;;;7.40;99.90;;;;;;5066529;28;20425;-71
2023/12/06 12:15:15;;;;;;;22.33;12.77;;;7.50;99.90;;;;;;5063811;28;20198;-71
2023/12/06 12:17:40;;;;;;;24.58;13.27;;;7.30;99.90;;;;;;5066522;28;20033;-71
2023/12/06 12:20:07;;;;;;;17.40;11.80;;;7.30;99.90;;;;;;5066817;28;20059;-71
2023/12/06 12:22:46;;;;;;;19.83;11.90;;;7.20;99.90;;;;;;5067116;28;20062;-71
2023/12/06 12:25:12;;;;;;;18.13;12.25;;;7.10;99.90;;;;;;5063639;28;20052;-71
2023/12/06 12:27:39;;;;;;;21.88;12.52;;;7.10;99.90;;;;;;5066985;28;20062;-70
2023/12/06 12:30:07;;;;;;;18.65;11.82;;;7.00;99.90;;;;;;5066500;28;20024;-70
2023/12/06 12:32:34;;;;;;;20.35;10.85;;;7.00;99.90;;;;;;5066866;28;20548;-71